Time;durP1;ratioP1;P1;durP2;ratioP2;P2;SDS_P1;SDS_P2;PMS_P1;PMS_P2;Temp;Humidity;BMP_temperature;BMP_pressure;BME280_temperature;BME280_humidity;BME280_pressure;Samples;Min_cycle;Max_cycle;Signal;HPM_P1;HPM_P2
2021/08/08 00:00:39;;;;;;;;;;;16.10;98.50;;;;;;5033690;28;19921;-72
2021/08/08 00:03:05;;;;;;;;;;;16.20;98.70;;;;;;5033162;28;19921;-71
2021/08/08 00:05:30;;;;;;;;;;;16.20;98.80;;;;;;5032146;28;19988;-72
2021/08/08 00:07:56;;;;;;;;;;;16.20;98.90;;;;;;5032837;28;19925;-69
2021/08/08 00:10:22;;;;;;;;;;;16.20;98.90;;;;;;5032181;28;20063;-72
2021/08/08 00:12:47;;;;;;;;;;;16.20;98.90;;;;;;5033666;28;19950;-72
2021/08/08 00:15:13;;;;;;;;;;;16.20;98.90;;;;;;5032867;28;19921;-71
2021/08/08 00:17:38;;;;;;;;;;;16.30;98.90;;;;;;5030602;28;19921;-71
2021/08/08 00:20:05;;;;;;;;;;;16.30;98.90;;;;;;5033343;28;20336;-70
2021/08/08 00:22:31;;;;;;;;;;;16.30;98.90;;;;;;5033069;28;19917;-72
2021/08/08 00:24:56;;;;;;;;;;;16.30;98.80;;;;;;5033183;28;19918;-70
2021/08/08 00:27:22;;;;;;;;;;;16.30;98.60;;;;;;5032857;28;19979;-71
2021/08/08 00:29:47;;;;;;;;;;;16.20;98.60;;;;;;5032816;28;20269;-72
2021/08/08 00:32:13;;;;;;;;;;;16.20;98.60;;;;;;5033048;28;20015;-71
2021/08/08 00:34:41;;;;;;;;;;;16.20;98.70;;;;;;5031765;28;19924;-71
2021/08/08 00:37:07;;;;;;;;;;;16.10;98.40;;;;;;5031013;28;19917;-71
2021/08/08 00:39:33;;;;;;;;;;;16.10;98.60;;;;;;5031587;28;19952;-71
2021/08/08 00:41:59;;;;;;;;;;;16.00;98.50;;;;;;5031089;28;19917;-70
2021/08/08 00:44:25;;;;;;;;;;;16.00;98.60;;;;;;5031443;28;19947;-72
2021/08/08 00:46:51;;;;;;;;;;;16.00;98.50;;;;;;5031173;28;19949;-71
2021/08/08 00:49:18;;;;;;;;;;;16.00;98.70;;;;;;5030937;28;19929;-72
2021/08/08 00:51:45;;;;;;;;;;;16.00;98.60;;;;;;5031376;28;19917;-72
2021/08/08 00:54:12;;;;;;;;;;;16.00;98.50;;;;;;5030945;28;19924;-70
2021/08/08 00:56:40;;;;;;;;;;;15.90;98.10;;;;;;5031353;28;19925;-65
2021/08/08 00:59:07;;;;;;;;;;;15.90;98.30;;;;;;5031045;28;20004;-65
2021/08/08 01:01:39;;;;;;;;;;;15.80;98.00;;;;;;5031772;28;19917;-65
2021/08/08 01:04:10;;;;;;;;;;;15.70;98.20;;;;;;5031169;28;19924;-65
2021/08/08 01:06:55;;;;;;;;;;;15.70;98.00;;;;;;5014024;28;20408;-65
2021/08/08 01:09:26;;;;;;;;;;;15.70;98.10;;;;;;5047855;28;19924;-65
2021/08/08 01:11:52;;;;;;;;;;;15.70;98.20;;;;;;5030792;28;19976;-65
2021/08/08 01:14:19;;;;;;;;;;;15.60;98.20;;;;;;5030913;28;20447;-65
2021/08/08 01:16:49;;;;;;;;;;;15.50;98.00;;;;;;5030150;28;20008;-65
2021/08/08 01:19:17;;;;;;;;;;;15.50;98.10;;;;;;5030805;28;19987;-67
2021/08/08 01:21:46;;;;;;;;;;;15.40;98.10;;;;;;5030600;28;19924;-65
2021/08/08 01:24:12;;;;;;;;;;;15.40;98.10;;;;;;5030779;28;20443;-65
2021/08/08 01:26:40;;;;;;;;;;;15.40;97.90;;;;;;5030518;28;19975;-65
2021/08/08 01:29:06;;;;;;;;;;;15.40;98.10;;;;;;5029959;28;19943;-65
2021/08/08 01:31:32;;;;;;;;;;;15.30;98.00;;;;;;5030788;28;19918;-66
2021/08/08 01:33:58;;;;;;;;;;;15.30;98.10;;;;;;5030578;28;19917;-65
2021/08/08 01:36:24;;;;;;;;;;;15.30;98.00;;;;;;5030134;28;19917;-65
2021/08/08 01:38:57;;;;;;;;;;;15.30;98.20;;;;;;5030457;28;19982;-65
2021/08/08 01:41:25;;;;;;;;;;;15.20;98.10;;;;;;5031487;28;19917;-65
2021/08/08 01:43:56;;;;;;;;;;;15.20;98.10;;;;;;5030526;28;19917;-65
2021/08/08 01:46:25;;;;;;;;;;;15.10;97.80;;;;;;5030438;28;20008;-66
2021/08/08 01:49:14;;;;;;;;;;;15.10;97.90;;;;;;5028100;28;19928;-66
2021/08/08 01:51:40;;;;;;;;;;;15.00;97.90;;;;;;5030499;28;19921;-65
2021/08/08 01:54:06;;;;;;;;;;;15.00;97.90;;;;;;5030035;28;19963;-65
2021/08/08 01:56:34;;;;;;;;;;;14.90;97.70;;;;;;5030222;28;19921;-65
2021/08/08 01:59:01;;;;;;;;;;;14.90;97.90;;;;;;5030201;28;19917;-66
2021/08/08 02:01:28;;;;;;;;;;;14.90;97.90;;;;;;5029935;28;19921;-65
2021/08/08 02:03:57;;;;;;;;;;;14.80;98.00;;;;;;5030422;28;20293;-65
2021/08/08 02:06:23;;;;;;;;;;;14.80;97.90;;;;;;5030145;28;19917;-65
2021/08/08 02:08:53;;;;;;;;;;;14.80;98.00;;;;;;5030454;28;19921;-67
2021/08/08 02:11:19;;;;;;;;;;;14.80;97.90;;;;;;5013775;28;19927;-65
2021/08/08 02:13:55;;;;;;;;;;;14.80;97.90;;;;;;5029896;28;19913;-66
2021/08/08 02:16:21;;;;;;;;;;;15.10;97.90;;;;;;5030140;28;19940;-66
2021/08/08 02:18:46;;;;;;;;;;;14.70;98.00;;;;;;5013159;28;19921;-66
2021/08/08 02:21:18;;;;;;;;;;;14.60;97.90;;;;;;5030309;28;20230;-65
2021/08/08 02:23:45;;;;;;;;;;;14.60;97.90;;;;;;5029742;28;20000;-65
2021/08/08 02:26:10;;;;;;;;;;;14.60;97.80;;;;;;5031288;28;19967;-65
2021/08/08 02:28:42;;;;;;;;;;;14.60;98.00;;;;;;5030610;28;19921;-66
2021/08/08 02:31:07;;;;;;;;;;;14.60;98.00;;;;;;5031116;28;19917;-65
2021/08/08 02:33:34;;;;;;;;;;;14.50;98.00;;;;;;5030202;28;19921;-66
2021/08/08 02:36:02;;;;;;;;;;;14.60;98.00;;;;;;5029958;28;19913;-68
2021/08/08 02:38:32;;;;;;;;;;;14.60;98.20;;;;;;5029507;28;19917;-66
2021/08/08 02:41:01;;;;;;;;;;;14.50;98.20;;;;;;5049795;28;20003;-66
2021/08/08 02:43:27;;;;;;;;;;;14.60;98.30;;;;;;5035400;28;20026;-65
2021/08/08 02:45:52;;;;;;;;;;;14.50;97.90;;;;;;5018254;28;19924;-66
2021/08/08 02:48:18;;;;;;;;;;;14.50;98.10;;;;;;5033409;28;19928;-66
2021/08/08 02:50:44;;;;;;;;;;;14.50;98.10;;;;;;5034831;28;20008;-65
2021/08/08 02:53:10;;;;;;;;;;;14.50;98.00;;;;;;5033614;28;19948;-64
2021/08/08 02:55:39;;;;;;;;;;;14.50;98.00;;;;;;5033075;28;19917;-65
2021/08/08 02:58:04;;;;;;;;;;;14.40;98.10;;;;;;5033229;28;20374;-65
2021/08/08 03:00:34;;;;;;;;;;;14.40;98.10;;;;;;5017403;28;19917;-65
2021/08/08 03:02:59;;;;;;;;;;;14.40;98.10;;;;;;5032961;28;19931;-65
2021/08/08 03:05:25;;;;;;;;;;;14.40;97.80;;;;;;5033357;28;19917;-65
2021/08/08 03:07:51;;;;;;;;;;;14.30;97.90;;;;;;5016639;28;19925;-65
2021/08/08 03:10:18;;;;;;;;;;;14.30;98.00;;;;;;5032886;28;19925;-65
2021/08/08 03:12:43;;;;;;;;;;;14.30;98.00;;;;;;5034613;28;19990;-65
2021/08/08 03:15:09;;;;;;;;;;;14.30;97.90;;;;;;5032727;28;20317;-67
2021/08/08 03:17:37;;;;;;;;;;;14.20;98.10;;;;;;5033134;28;19924;-65
2021/08/08 03:20:03;;;;;;;;;;;14.20;98.20;;;;;;5049944;28;19924;-65
2021/08/08 03:22:29;;;;;;;;;;;14.30;98.20;;;;;;5032733;28;19913;-65
2021/08/08 03:24:56;;;;;;;;;;;14.20;98.00;;;;;;5033158;28;20313;-66
2021/08/08 03:27:22;;;;;;;;;;;14.20;98.00;;;;;;5032299;28;19917;-65
2021/08/08 03:29:48;;;;;;;;;;;14.20;98.00;;;;;;5032530;28;19929;-65
2021/08/08 03:32:14;;;;;;;;;;;14.20;98.20;;;;;;5032970;28;20381;-65
2021/08/08 03:34:39;;;;;;;;;;;14.20;98.20;;;;;;5032348;28;20002;-66
2021/08/08 03:37:05;;;;;;;;;;;14.20;98.00;;;;;;5032498;28;19925;-65
2021/08/08 03:39:34;;;;;;;;;;;14.20;98.30;;;;;;5032979;28;19925;-65
2021/08/08 03:42:01;;;;;;;;;;;14.20;98.30;;;;;;5033903;28;20412;-66
2021/08/08 03:44:28;;;;;;;;;;;14.30;98.40;;;;;;5032906;28;19925;-65
2021/08/08 03:46:56;;;;;;;;;;;14.20;98.20;;;;;;5031899;28;19924;-65
2021/08/08 03:49:22;;;;;;;;;;;14.20;98.30;;;;;;5032443;28;19921;-65
2021/08/08 03:51:47;;;;;;;;;;;14.20;98.30;;;;;;5033708;28;19952;-65
2021/08/08 03:54:15;;;;;;;;;;;14.30;98.50;;;;;;5015833;28;19952;-66
2021/08/08 03:56:42;;;;;;;;;;;14.30;98.50;;;;;;5033400;28;19964;-65
2021/08/08 03:59:08;;;;;;;;;;;14.30;98.70;;;;;;5033735;28;19923;-65
2021/08/08 04:01:34;;;;;;;;;;;14.40;98.70;;;;;;5031943;28;19996;-65
2021/08/08 04:04:00;;;;;;;;;;;14.40;98.60;;;;;;5032247;28;19921;-65
2021/08/08 04:06:26;;;;;;;;;;;14.40;98.50;;;;;;5031678;28;19917;-65
2021/08/08 04:08:52;;;;;;;;;;;14.50;98.80;;;;;;5031984;28;19928;-65
2021/08/08 04:11:18;;;;;;;;;;;14.50;98.80;;;;;;5032238;28;19921;-65
2021/08/08 04:13:45;;;;;;;;;;;14.60;98.90;;;;;;5031641;28;20330;-65
2021/08/08 04:16:11;;;;;;;;;;;14.70;98.80;;;;;;5032166;28;20013;-65
2021/08/08 04:18:36;;;;;;;;;;;14.70;99.00;;;;;;5031696;28;19924;-65
2021/08/08 04:21:03;;;;;;;;;;;14.70;99.00;;;;;;5048220;28;19917;-66
2021/08/08 04:23:29;;;;;;;;;;;14.80;99.00;;;;;;5015503;28;19924;-65
2021/08/08 04:25:54;;;;;;;;;;;14.80;98.70;;;;;;5031330;28;20373;-65
2021/08/08 04:28:20;;;;;;;;;;;14.80;98.90;;;;;;5032858;28;20373;-65
2021/08/08 04:30:46;;;;;;;;;;;14.90;99.00;;;;;;5031795;28;19921;-65
2021/08/08 04:33:11;;;;;;;;;;;14.90;99.00;;;;;;5031260;28;19917;-67
2021/08/08 04:35:38;;;;;;;;;;;15.00;98.90;;;;;;5033101;28;19917;-65
2021/08/08 04:38:04;;;;;;;;;;;15.00;99.00;;;;;;5032295;28;19917;-65
2021/08/08 04:40:31;;;;;;;;;;;15.00;99.00;;;;;;5031596;28;19952;-65
2021/08/08 04:42:58;;;;;;;;;;;15.00;99.00;;;;;;5031809;28;19917;-65
2021/08/08 04:45:24;;;;;;;;;;;15.10;98.80;;;;;;5031024;28;20377;-65
2021/08/08 04:47:50;;;;;;;;;;;15.10;99.00;;;;;;5047685;28;19921;-65
2021/08/08 04:50:17;;;;;;;;;;;15.10;99.20;;;;;;5031418;28;20445;-66
2021/08/08 04:52:45;;;;;;;;;;;15.30;99.40;;;;;;5030905;28;20366;-66
2021/08/08 04:55:11;;;;;;;;;;;15.40;99.30;;;;;;5031084;28;19921;-65
2021/08/08 04:57:37;;;;;;;;;;;15.50;99.40;;;;;;5047262;28;19917;-65
2021/08/08 05:00:03;;;;;;;;;;;15.60;99.50;;;;;;5031320;28;19921;-65
2021/08/08 05:02:30;;;;;;;;;;;15.70;99.50;;;;;;5031271;28;20003;-65
2021/08/08 05:04:56;;;;;;;;;;;15.80;99.40;;;;;;5030192;28;20005;-66
2021/08/08 05:07:22;;;;;;;;;;;15.80;99.60;;;;;;5030814;28;19968;-66
2021/08/08 05:09:47;;;;;;;;;;;16.00;99.80;;;;;;5047712;28;19928;-65
2021/08/08 05:12:13;;;;;;;;;;;16.20;99.90;;;;;;5030723;28;20278;-66
2021/08/08 05:14:45;;;;;;;;;;;16.30;99.90;;;;;;5030932;28;19917;-66
2021/08/08 05:17:11;;;;;;;;;;;16.40;99.60;;;;;;5013731;28;20022;-65
2021/08/08 05:19:37;;;;;;;;;;;16.40;99.60;;;;;;5031005;28;19968;-66
2021/08/08 05:22:03;;;;;;;;;;;16.40;99.40;;;;;;5030937;28;19945;-66
2021/08/08 05:24:30;;;;;;;;;;;16.40;99.40;;;;;;5030349;28;19955;-66
2021/08/08 05:26:56;;;;;;;;;;;16.40;99.30;;;;;;5030438;28;19921;-66
2021/08/08 05:29:25;;;;;;;;;;;16.50;99.60;;;;;;5030139;28;19921;-66
2021/08/08 05:31:51;;;;;;;;;;;16.50;99.50;;;;;;5030729;28;19996;-66
2021/08/08 05:34:17;;;;;;;;;;;16.50;99.40;;;;;;5032082;28;20400;-67
2021/08/08 05:36:42;;;;;;;;;;;16.50;99.20;;;;;;5029893;28;20382;-66
2021/08/08 05:39:08;;;;;;;;;;;16.60;99.50;;;;;;5030584;28;20010;-66
2021/08/08 05:41:33;;;;;;;;;;;16.60;99.50;;;;;;5031963;28;19917;-67
2021/08/08 05:43:59;;;;;;;;;;;16.60;99.60;;;;;;5030668;28;19917;-67
2021/08/08 05:46:25;;;;;;;;;;;16.70;99.50;;;;;;5033664;28;19917;-67
2021/08/08 05:48:50;;;;;;;;;;;16.90;99.90;;;;;;5030459;28;19921;-68
2021/08/08 05:51:18;;;;;;;;;;;17.00;99.90;;;;;;5030512;28;19939;-67
2021/08/08 05:53:44;;;;;;;;;;;17.20;99.90;;;;;;5030395;28;19996;-66
2021/08/08 05:56:10;;;;;;;;;;;17.30;99.50;;;;;;5029922;28;19963;-68
2021/08/08 05:58:40;;;;;;;;;;;17.20;99.50;;;;;;5029977;28;19963;-66
2021/08/08 06:01:05;;;;;;;;;;;17.10;99.30;;;;;;5031900;28;19941;-68
2021/08/08 06:03:31;;;;;;;;;;;17.00;99.20;;;;;;5031344;28;19917;-66
2021/08/08 06:05:57;;;;;;;;;;;16.80;98.70;;;;;;5030126;28;20412;-67
2021/08/08 06:08:23;;;;;;;;;;;16.80;98.90;;;;;;5029557;28;20266;-66
2021/08/08 06:10:49;;;;;;;;;;;16.70;98.90;;;;;;5030157;28;19924;-66
2021/08/08 06:13:16;;;;;;;;;;;16.70;98.90;;;;;;5030250;28;19921;-66
2021/08/08 06:15:44;;;;;;;;;;;16.60;98.80;;;;;;5030918;28;19924;-65
2021/08/08 06:18:10;;;;;;;;;;;16.50;98.90;;;;;;5034083;28;19917;-70
2021/08/08 06:20:36;;;;;;;;;;;16.50;99.00;;;;;;5034461;28;19917;-67
2021/08/08 06:23:02;;;;;;;;;;;16.50;98.90;;;;;;5034947;28;19948;-65
2021/08/08 06:25:27;;;;;;;;;;;16.40;98.70;;;;;;5034283;28;19921;-66
2021/08/08 06:27:53;;;;;;;;;;;16.50;98.90;;;;;;5034529;28;19924;-65
2021/08/08 06:30:19;;;;;;;;;;;16.30;98.70;;;;;;5034130;28;20179;-66
2021/08/08 06:32:45;;;;;;;;;;;16.30;98.60;;;;;;5034173;28;19917;-66
2021/08/08 06:35:11;;;;;;;;;;;16.20;98.60;;;;;;5033749;28;19917;-66
2021/08/08 06:37:43;;;;;;;;;;;16.20;98.80;;;;;;5033719;28;20452;-66
2021/08/08 06:40:10;;;;;;;;;;;16.20;98.90;;;;;;5033524;28;19921;-66
2021/08/08 06:42:36;;;;;;;;;;;16.20;99.00;;;;;;5033962;28;20433;-65
2021/08/08 06:45:03;;;;;;;;;;;16.30;98.90;;;;;;5033673;28;20408;-66
2021/08/08 06:47:28;;;;;;;;;;;16.30;99.10;;;;;;5034418;28;19917;-66
2021/08/08 06:49:54;;;;;;;;;;;16.30;99.10;;;;;;5033686;28;20377;-65
2021/08/08 06:52:19;;;;;;;;;;;16.30;99.00;;;;;;5033562;28;19928;-66
2021/08/08 06:54:45;;;;;;;;;;;16.30;99.00;;;;;;5034532;28;20316;-66
2021/08/08 06:57:10;;;;;;;;;;;16.30;98.70;;;;;;5019365;22;19948;-62
2021/08/08 06:59:39;;;;;;;;;;;16.30;98.80;;;;;;4993700;28;19925;-62
2021/08/08 07:02:05;;;;;;;;;;;16.30;98.80;;;;;;4993875;28;19925;-62
2021/08/08 07:04:31;;;;;;;;;;;16.30;98.90;;;;;;4994047;28;19918;-62
2021/08/08 07:06:57;;;;;;;;;;;16.30;98.80;;;;;;4993012;28;19918;-62
2021/08/08 07:09:22;;;;;;;;;;;16.30;99.10;;;;;;4993689;28;19926;-62
2021/08/08 07:11:49;;;;;;;;;;;16.40;99.10;;;;;;4977493;28;19918;-62
2021/08/08 07:14:23;;;;;;;;;;;16.40;99.00;;;;;;4993838;28;19918;-62
2021/08/08 07:16:50;;;;;;;;;;;16.40;98.70;;;;;;4993412;28;19922;-62
2021/08/08 07:19:16;;;;;;;;;;;16.40;98.90;;;;;;4993144;28;19918;-62
2021/08/08 07:21:42;;;;;;;;;;;16.30;98.80;;;;;;4993607;28;19921;-62
2021/08/08 07:24:07;;;;;;;;;;;16.40;98.90;;;;;;4993685;28;19917;-62
2021/08/08 07:26:33;;;;;;;;;;;16.30;98.70;;;;;;4973179;28;19941;-62
2021/08/08 07:28:59;;;;;;;;;;;16.40;99.00;;;;;;4973865;28;19922;-62
2021/08/08 07:31:25;;;;;;;;;;;16.40;99.10;;;;;;4974982;28;19918;-62
2021/08/08 07:33:51;;;;;;;;;;;16.40;99.10;;;;;;4974079;28;19925;-62
2021/08/08 07:36:17;;;;;;;;;;;16.50;98.80;;;;;;4973791;28;19925;-62
2021/08/08 07:38:42;;;;;;;;;;;16.40;98.90;;;;;;4973252;28;19918;-62
2021/08/08 07:41:11;;;;;;;;;;;16.50;98.90;;;;;;4973802;28;20005;-62
2021/08/08 07:43:37;;;;;;;;;;;16.50;99.00;;;;;;4989998;28;19918;-63
2021/08/08 07:46:03;;;;;;;;;;;16.60;99.10;;;;;;4973316;28;20009;-64
2021/08/08 07:48:29;;;;;;;;;;;16.70;99.20;;;;;;4974708;28;20447;-62
2021/08/08 07:50:55;;;;;;;;;;;16.80;99.40;;;;;;4974550;28;19953;-62
2021/08/08 07:53:20;;;;;;;;;;;16.80;99.20;;;;;;4989701;28;20337;-64
2021/08/08 07:55:49;;;;;;;;;;;16.70;98.40;;;;;;4973403;28;19918;-64
2021/08/08 07:58:16;;;;;;;;;;;16.70;98.40;;;;;;4972893;28;19937;-62
2021/08/08 08:00:41;;;;;;;;;;;16.70;98.60;;;;;;4973273;28;19918;-62
2021/08/08 08:03:07;;;;;;;;;;;16.70;98.90;;;;;;4974308;28;19922;-62
2021/08/08 08:05:32;;;;;;;;;;;16.70;98.80;;;;;;4957014;28;19969;-61
2021/08/08 08:07:58;;;;;;;;;;;16.70;98.90;;;;;;4973061;28;19922;-62
2021/08/08 08:10:29;;;;;;;;;;;16.70;98.90;;;;;;4972855;28;19941;-62
2021/08/08 08:12:55;;;;;;;;;;;16.70;98.80;;;;;;4989432;28;19925;-62
2021/08/08 08:15:22;;;;;;;;;;;16.70;98.60;;;;;;4973315;28;19925;-62
2021/08/08 08:17:49;;;;;;;;;;;16.70;98.80;;;;;;4973949;28;19918;-62
2021/08/08 08:20:15;;;;;;;;;;;16.70;98.80;;;;;;4973057;28;19925;-62
2021/08/08 08:22:41;;;;;;;;;;;16.80;99.00;;;;;;4988760;28;19918;-62
2021/08/08 08:25:08;;;;;;;;;;;16.80;99.00;;;;;;4989100;28;19918;-62
2021/08/08 08:27:33;;;;;;;;;;;16.80;98.80;;;;;;4972742;28;20005;-62
2021/08/08 08:29:59;;;;;;;;;;;16.90;99.10;;;;;;4972239;28;19982;-64
2021/08/08 08:32:24;;;;;;;;;;;17.10;99.20;;;;;;4973044;28;19949;-64
2021/08/08 08:34:50;;;;;;;;;;;17.10;99.10;;;;;;4974122;28;19918;-63
2021/08/08 08:37:16;;;;;;;;;;;17.30;98.80;;;;;;4972028;28;20083;-64
2021/08/08 08:39:42;;;;;;;;;;;17.20;98.60;;;;;;4971834;28;19929;-61
2021/08/08 08:42:09;;;;;;;;;;;17.30;98.70;;;;;;4972390;28;20001;-64
2021/08/08 08:44:35;;;;;;;;;;;17.20;98.70;;;;;;4972828;28;19918;-64
2021/08/08 08:47:02;;;;;;;;;;;17.20;98.30;;;;;;4972240;28;20347;-64
2021/08/08 08:49:28;;;;;;;;;;;17.20;98.70;;;;;;4972165;28;19922;-64
2021/08/08 08:52:01;;;;;;;;;;;17.20;98.60;;;;;;4972514;28;19918;-64
2021/08/08 08:54:28;;;;;;;;;;;17.20;98.60;;;;;;4972159;28;20309;-64
2021/08/08 08:56:55;;;;;;;;;;;17.30;98.60;;;;;;4972012;28;19929;-64
2021/08/08 08:59:21;;;;;;;;;;;17.30;98.90;;;;;;4973740;28;20301;-63
2021/08/08 09:01:47;;;;;;;;;;;17.40;99.00;;;;;;4971986;28;19918;-64
2021/08/08 09:04:12;;;;;;;;;;;17.60;99.00;;;;;;4988573;28;19922;-64
2021/08/08 09:06:40;;;;;;;;;;;17.90;99.30;;;;;;4971489;28;19921;-63
2021/08/08 09:09:05;;;;;;;;;;;18.10;99.30;;;;;;4973406;28;19945;-63
2021/08/08 09:11:38;;;;;;;;;;;18.30;99.30;;;;;;4973594;28;20371;-64
2021/08/08 09:14:03;;;;;;;;;;;18.60;99.10;;;;;;4979835;28;19918;-64
2021/08/08 09:16:39;;;;;;;;;;;19.10;99.20;;;;;;4973597;28;20333;-64
2021/08/08 09:19:05;;;;;;;;;;;19.30;99.40;;;;;;5004078;28;20407;-64
2021/08/08 09:21:32;;;;;;;;;;;20.10;99.90;;;;;;5004539;28;19958;-64
2021/08/08 09:23:59;;;;;;;;;;;21.10;99.90;;;;;;4971698;28;19918;-64
2021/08/08 09:26:28;;;;;;;;;;;21.90;98.40;;;;;;4971954;28;19922;-64
2021/08/08 09:29:05;;;;;;;;;;;22.30;99.30;;;;;;4971812;28;20012;-64
2021/08/08 09:31:41;;;;;;;;;;;22.90;97.60;;;;;;4971389;28;19922;-64
2021/08/08 09:34:08;;;;;;;;;;;22.70;96.00;;;;;;5004424;28;19966;-64
2021/08/08 09:36:40;;;;;;;;;;;22.20;94.90;;;;;;4992242;28;19918;-64
2021/08/08 09:39:06;;;;;;;;;;;22.00;94.50;;;;;;4992377;28;19918;-64
2021/08/08 09:41:35;;;;;;;;;;;21.10;94.30;;;;;;4990790;28;19922;-64
2021/08/08 09:44:05;;;;;;;;;;;21.10;94.50;;;;;;4991167;28;19918;-64
2021/08/08 09:46:30;;;;;;;;;;;20.80;95.00;;;;;;4992145;28;19929;-64
2021/08/08 09:49:05;;;;;;;;;;;20.70;94.80;;;;;;4990308;28;19921;-64
2021/08/08 09:51:30;;;;;;;;;;;20.60;94.30;;;;;;4992315;28;19918;-64
2021/08/08 09:53:56;;;;;;;;;;;20.40;93.70;;;;;;4991728;28;20282;-64
2021/08/08 09:56:24;;;;;;;;;;;20.20;93.70;;;;;;4990830;28;20008;-64
2021/08/08 09:58:49;;;;;;;;;;;20.00;93.70;;;;;;4991963;28;19918;-64
2021/08/08 10:01:15;;;;;;;;;;;19.90;94.20;;;;;;4991675;28;19964;-64
2021/08/08 10:03:41;;;;;;;;;;;19.90;94.70;;;;;;4992102;28;19960;-63
2021/08/08 10:06:10;;;;;;;;;;;20.00;94.00;;;;;;4991652;28;19918;-64
2021/08/08 10:08:36;;;;;;;;;;;19.90;93.50;;;;;;4991766;28;19981;-64
2021/08/08 10:11:02;;;;;;;;;;;19.80;93.60;;;;;;4992078;28;20073;-63
2021/08/08 10:13:32;;;;;;;;;;;19.80;94.30;;;;;;4991642;28;19955;-64
2021/08/08 10:15:58;;;;;;;;;;;20.00;94.00;;;;;;4992009;28;19917;-63
2021/08/08 10:18:27;;;;;;;;;;;20.00;94.20;;;;;;4991399;28;19918;-64
2021/08/08 10:20:53;;;;;;;;;;;20.00;93.90;;;;;;4991990;28;19917;-64
2021/08/08 10:23:19;;;;;;;;;;;20.00;93.90;;;;;;4991925;28;20382;-63
2021/08/08 10:25:46;;;;;;;;;;;19.80;93.50;;;;;;4990270;28;19918;-63
2021/08/08 10:28:12;;;;;;;;;;;20.00;94.30;;;;;;4990246;28;20341;-64
2021/08/08 10:30:38;;;;;;;;;;;20.10;94.50;;;;;;4991565;28;19918;-63
2021/08/08 10:33:04;;;;;;;;;;;20.40;93.50;;;;;;4991906;28;19949;-63
2021/08/08 10:35:46;;;;;;;;;;;20.40;93.20;;;;;;4991679;28;20001;-64
2021/08/08 10:38:12;;;;;;;;;;;20.40;93.40;;;;;;4991231;28;19918;-64
2021/08/08 10:40:40;;;;;;;;;;;20.40;92.80;;;;;;4990484;28;20001;-63
2021/08/08 10:43:06;;;;;;;;;;;20.30;92.50;;;;;;4991352;28;19941;-64
2021/08/08 10:45:33;;;;;;;;;;;20.20;92.40;;;;;;4991626;28;19917;-64
2021/08/08 10:48:06;;;;;;;;;;;20.20;92.60;;;;;;4991368;28;19917;-64
2021/08/08 10:50:37;;;;;;;;;;;20.20;92.30;;;;;;4991263;28;19924;-64
2021/08/08 10:53:03;;;;;;;;;;;20.10;92.20;;;;;;4990186;28;19924;-64
2021/08/08 10:55:30;;;;;;;;;;;20.40;92.80;;;;;;4991085;28;19913;-64
2021/08/08 10:57:56;;;;;;;;;;;21.00;93.40;;;;;;4991381;28;19918;-64
2021/08/08 11:00:29;;;;;;;;;;;21.00;93.60;;;;;;4991534;28;19918;-64
2021/08/08 11:02:55;;;;;;;;;;;21.70;93.50;;;;;;4993769;28;19927;-64
2021/08/08 11:05:22;;;;;;;;;;;22.20;91.30;;;;;;4993833;28;20378;-64
2021/08/08 11:07:48;;;;;;;;;;;22.20;91.50;;;;;;4993150;28;20005;-64
2021/08/08 11:10:27;;;;;;;;;;;22.20;90.60;;;;;;4994846;28;20314;-64
2021/08/08 11:12:52;;;;;;;;;;;22.00;89.10;;;;;;4994570;28;19949;-65
2021/08/08 11:15:18;;;;;;;;;;;21.70;87.30;;;;;;4994775;28;20386;-64
2021/08/08 11:17:46;;;;;;;;;;;21.60;87.70;;;;;;4994765;28;20382;-64
2021/08/08 11:20:11;;;;;;;;;;;21.40;89.30;;;;;;4994677;28;19949;-64
2021/08/08 11:22:37;;;;;;;;;;;21.40;89.90;;;;;;4994904;28;19961;-64
2021/08/08 11:25:05;;;;;;;;;;;21.40;88.80;;;;;;4994646;28;20021;-65
2021/08/08 11:27:30;;;;;;;;;;;21.40;88.10;;;;;;4994530;28;19968;-65
2021/08/08 11:29:56;;;;;;;;;;;21.40;88.40;;;;;;4993239;28;19926;-64
2021/08/08 11:32:26;;;;;;;;;;;21.10;87.10;;;;;;4994416;28;19945;-64
2021/08/08 11:35:02;;;;;;;;;;;20.70;87.00;;;;;;4993356;28;19918;-64
2021/08/08 11:37:29;;;;;;;;;;;20.60;87.20;;;;;;4993779;28;19926;-64
2021/08/08 11:39:55;;;;;;;;;;;20.60;89.40;;;;;;4994907;28;19917;-64
2021/08/08 11:42:28;;;;;;;;;;;20.90;90.20;;;;;;4994509;28;20277;-65
2021/08/08 11:44:54;;;;;;;;;;;21.00;88.80;;;;;;4994209;28;19940;-64
2021/08/08 11:47:23;;;;;;;;;;;20.80;87.10;;;;;;4994257;28;20417;-64
2021/08/08 11:49:49;;;;;;;;;;;20.60;87.60;;;;;;4992722;28;20298;-64
2021/08/08 11:52:16;;;;;;;;;;;20.60;89.00;;;;;;4994490;28;19925;-64
2021/08/08 11:54:42;;;;;;;;;;;20.80;89.20;;;;;;4994270;28;19988;-64
2021/08/08 11:57:09;;;;;;;;;;;20.90;89.30;;;;;;4993118;28;20275;-64
2021/08/08 11:59:36;;;;;;;;;;;21.40;89.90;;;;;;4994350;28;20336;-64
2021/08/08 12:02:07;;;;;;;;;;;21.50;90.10;;;;;;4993750;28;20402;-64
2021/08/08 12:04:35;;;;;;;;;;;23.40;91.30;;;;;;5009134;28;20122;-65
2021/08/08 12:07:03;;;;;;;;;;;23.80;90.80;;;;;;4993028;28;19925;-65
2021/08/08 12:09:29;;;;;;;;;;;24.20;88.50;;;;;;4993666;28;19929;-65
2021/08/08 12:11:55;;;;;;;;;;;24.20;82.10;;;;;;4993775;28;19918;-64
2021/08/08 12:14:29;;;;;;;;;;;24.20;82.40;;;;;;4993328;28;19918;-65
2021/08/08 12:16:59;;;;;;;;;;;23.90;80.70;;;;;;4987749;28;19926;-64
2021/08/08 12:19:27;;;;;;;;;;;23.90;81.30;;;;;;4973868;28;19918;-64
2021/08/08 12:21:59;;;;;;;;;;;23.80;79.60;;;;;;4973879;28;19925;-65
2021/08/08 12:24:31;;;;;;;;;;;23.80;80.50;;;;;;4974371;28;19925;-64
2021/08/08 12:26:56;;;;;;;;;;;23.80;78.80;;;;;;4972298;28;19918;-65
2021/08/08 12:29:28;;;;;;;;;;;23.80;79.80;;;;;;4974189;28;20307;-65
2021/08/08 12:32:03;;;;;;;;;;;23.80;78.20;;;;;;4973775;28;19918;-64
2021/08/08 12:34:30;;;;;;;;;;;23.60;76.60;;;;;;4973900;28;19918;-64
2021/08/08 12:37:01;;;;;;;;;;;23.20;75.80;;;;;;4973380;28;19958;-64
2021/08/08 12:39:27;;;;;;;;;;;23.00;76.40;;;;;;4974086;28;20438;-64
2021/08/08 12:41:52;;;;;;;;;;;22.80;76.60;;;;;;4973986;28;20294;-64
2021/08/08 12:44:29;;;;;;;;;;;22.70;77.50;;;;;;4973514;28;19918;-64
2021/08/08 12:46:58;;;;;;;;;;;22.80;78.00;;;;;;4973572;28;20366;-64
2021/08/08 12:49:31;;;;;;;;;;;22.90;77.90;;;;;;4973588;28;19926;-64
2021/08/08 12:51:56;;;;;;;;;;;23.30;78.00;;;;;;4972579;28;19918;-65
2021/08/08 12:54:22;;;;;;;;;;;23.60;77.30;;;;;;4973195;28;20290;-65
2021/08/08 12:56:47;;;;;;;;;;;23.90;76.00;;;;;;4973759;28;19922;-64
2021/08/08 12:59:13;;;;;;;;;;;24.00;75.20;;;;;;4973626;28;20245;-64
2021/08/08 13:01:40;;;;;;;;;;;24.00;73.60;;;;;;4972955;28;20363;-64
2021/08/08 13:04:08;;;;;;;;;;;23.90;72.50;;;;;;4973386;28;20382;-64
2021/08/08 13:06:34;;;;;;;;;;;23.70;72.10;;;;;;4973187;28;19925;-64
2021/08/08 13:08:59;;;;;;;;;;;23.40;71.80;;;;;;4973072;28;19923;-64
2021/08/08 13:11:25;;;;;;;;;;;23.10;72.30;;;;;;4973378;28;19924;-64
2021/08/08 13:13:52;;;;;;;;;;;22.90;73.20;;;;;;4971885;28;21277;-64
2021/08/08 13:16:17;;;;;;;;;;;22.90;74.10;;;;;;4973227;28;19918;-64
2021/08/08 13:18:43;;;;;;;;;;;22.90;73.60;;;;;;4971841;28;20013;-64
2021/08/08 13:21:12;;;;;;;;;;;22.70;73.80;;;;;;4971700;28;19970;-64
2021/08/08 13:23:38;;;;;;;;;;;22.60;73.70;;;;;;4973245;28;20434;-64
2021/08/08 13:26:05;;;;;;;;;;;22.30;73.80;;;;;;4972376;28;19922;-64
2021/08/08 13:28:31;;;;;;;;;;;22.30;74.40;;;;;;4982556;28;19930;-64
2021/08/08 13:30:56;;;;;;;;;;;22.40;75.30;;;;;;4967592;28;19925;-64
2021/08/08 13:33:22;;;;;;;;;;;22.60;74.50;;;;;;4962433;28;19978;-64
2021/08/08 13:35:47;;;;;;;;;;;22.50;72.40;;;;;;4968814;28;20382;-64
2021/08/08 13:38:13;;;;;;;;;;;22.50;72.70;;;;;;4967789;28;19919;-64
2021/08/08 13:40:39;;;;;;;;;;;22.40;72.90;;;;;;4968603;28;19918;-64
2021/08/08 13:43:04;;;;;;;;;;;22.30;73.20;;;;;;4965061;28;19953;-64
2021/08/08 13:45:30;;;;;;;;;;;22.20;73.00;;;;;;4963207;28;20409;-64
2021/08/08 13:47:55;;;;;;;;;;;22.20;73.50;;;;;;4964447;28;19997;-64
2021/08/08 13:50:21;;;;;;;;;;;22.30;74.20;;;;;;4968456;28;19925;-64
2021/08/08 13:52:47;;;;;;;;;;;22.30;73.40;;;;;;4964039;28;19918;-65
2021/08/08 13:55:16;;;;;;;;;;;22.20;73.10;;;;;;4976369;28;19969;-64
2021/08/08 13:57:45;;;;;;;;;;;22.10;72.80;;;;;;4991472;28;19926;-64
2021/08/08 14:00:11;;;;;;;;;;;22.10;73.60;;;;;;4990756;28;19936;-64
2021/08/08 14:02:39;;;;;;;;;;;22.00;73.90;;;;;;4992191;28;20333;-64
2021/08/08 14:05:06;;;;;;;;;;;21.90;73.50;;;;;;4985238;28;19949;-64
2021/08/08 14:07:32;;;;;;;;;;;21.70;73.90;;;;;;4964237;28;20268;-64
2021/08/08 14:09:57;;;;;;;;;;;21.50;74.30;;;;;;4964374;28;19946;-64
2021/08/08 14:12:23;;;;;;;;;;;21.40;74.90;;;;;;4961853;28;19945;-64
2021/08/08 14:14:48;;;;;;;;;;;21.30;75.40;;;;;;4969687;28;19972;-65